This is the latest recevied weather packets stored in our database for station/object KB2SKP. If no packets are shown the sender has not sent any weather packets the latest 10 day(s).
| Time | Temp. | Humidity | Pressure | Rain* | Wind** | Luminosity | Snow |
|---|---|---|---|---|---|---|---|
| 1777337338 | 13.33° C | 68% | 1020.1 hPa | 0 mm | - | 0 W/m² | - |
| 1777336733 | 13.33° C | 67% | 1020.4 hPa | 0 mm | - | 0 W/m² | - |
| 1777336123 | 13.89° C | 66% | 1020.1 hPa | 0 mm | - | 0 W/m² | - |
| 1777328553 | 18.33° C | 48% | 1019 hPa | 0 mm | - | 20 W/m² | - |
| 1777313708 | 18.89° C | 46% | 1020.2 hPa | 0 mm | - | 39 W/m² | - |
| 1777312797 | 18.33° C | 48% | 1020.3 hPa | 0 mm | - | 51 W/m² | - |
| 1777312495 | 18.89° C | 47% | 1020.5 hPa | 0 mm | - | 57 W/m² | - |
| 1777311283 | 17.78° C | 49% | 1020.7 hPa | 0 mm | - | 47 W/m² | - |
| 1777310981 | 17.22° C | 52% | 1020.7 hPa | 0 mm | - | 49 W/m² | - |
| 1777310679 | 17.78° C | 50% | 1021.1 hPa | 0 mm | - | 65 W/m² | - |
| 1777310376 | 17.78° C | 48% | 1020.7 hPa | 0 mm | - | 35 W/m² | - |
| 1777310072 | 17.78° C | 50% | 1021 hPa | 0 mm | - | 45 W/m² | - |
| 1777309166 | 17.78° C | 50% | 1021.1 hPa | 0 mm | - | 49 W/m² | - |
| 1777307643 | 16.11° C | 54% | 1020.9 hPa | 0 mm | - | 33 W/m² | - |
| 1777306125 | 16.11° C | 54% | 1020.8 hPa | 0 mm | - | 33 W/m² | - |
| 1777304902 | 16.11° C | 54% | 1021.3 hPa | 0 mm | - | 34 W/m² | - |
| 1777304296 | 15.56° C | 54% | 1021.1 hPa | 0 mm | - | 32 W/m² | - |
| 1777303993 | 15.56° C | 53% | 1021.4 hPa | 0 mm | - | 32 W/m² | - |
| 1777302480 | 15.56° C | 53% | 1021.6 hPa | 0 mm | - | 33 W/m² | - |
| 1777301875 | 15.56° C | 53% | 1021.6 hPa | 0 mm | - | 61 W/m² | - |
| 1777301269 | 15° C | 54% | 1021.8 hPa | 0 mm | - | 150 W/m² | - |
| 1777300966 | 13.89° C | 54% | 1021.6 hPa | 0 mm | - | 345 W/m² | - |
| 1777300664 | 14.44° C | 56% | 1021.5 hPa | 0 mm | - | 34 W/m² | - |
| 1777300361 | 15° C | 54% | 1021.4 hPa | 0 mm | - | 32 W/m² | - |
| 1777300058 | 13.89° C | 54% | 1021.4 hPa | 0 mm | - | 233 W/m² | - |
* Rain latest hour (hover to see other rain measurements)
** Current wind speed in m/s (hover to see current wind gust speed)